createdAt,value
2023-07-15T00:01:38.607Z,46.99
2023-07-15T00:04:14.545Z,46.85
2023-07-15T00:06:42.420Z,46.91
2023-07-15T00:09:10.477Z,46.91
2023-07-15T00:11:44.514Z,47.08
2023-07-15T00:14:23.243Z,47.17
2023-07-15T00:16:51.495Z,47.08
2023-07-15T00:19:20.325Z,47.17
2023-07-15T00:21:48.916Z,47.25
2023-07-15T00:24:16.256Z,47.26
2023-07-15T00:26:43.103Z,47.19
2023-07-15T00:29:09.820Z,47.28
2023-07-15T00:31:37.442Z,47.20
2023-07-15T00:34:05.671Z,47.29
2023-07-15T00:36:34.024Z,47.40
2023-07-15T00:39:00.735Z,47.28
2023-07-15T00:41:31.547Z,47.38
2023-07-15T00:43:58.090Z,47.49
2023-07-15T00:46:39.790Z,47.64
2023-07-15T00:49:22.801Z,47.69
2023-07-15T00:52:17.426Z,48.57
2023-07-15T00:54:49.414Z,48.00
2023-07-15T00:57:18.061Z,48.16
2023-07-15T00:59:48.169Z,48.23
2023-07-15T01:02:16.460Z,48.39
2023-07-15T01:04:43.158Z,48.45
2023-07-15T01:07:09.911Z,48.11
2023-07-15T01:09:37.377Z,48.46
2023-07-15T01:12:05.979Z,48.53
2023-07-15T01:14:32.904Z,48.45
2023-07-15T01:16:59.677Z,48.45
2023-07-15T01:19:26.437Z,48.39
2023-07-15T01:21:54.654Z,48.42
2023-07-15T01:24:23.428Z,48.61
2023-07-15T01:26:59.579Z,48.57
2023-07-15T01:29:26.297Z,48.70
2023-07-15T01:31:52.949Z,48.70
2023-07-15T01:34:20.863Z,48.95
2023-07-15T01:36:47.883Z,48.94
2023-07-15T01:39:14.676Z,49.13
2023-07-15T01:41:41.395Z,49.11
2023-07-15T01:44:08.107Z,49.23
2023-07-15T01:46:40.275Z,49.01
2023-07-15T01:49:08.578Z,49.25
2023-07-15T01:51:36.533Z,49.28
2023-07-15T01:54:04.272Z,49.06
2023-07-15T01:56:31.324Z,49.33
2023-07-15T01:58:58.068Z,49.34
2023-07-15T02:01:26.024Z,49.67
2023-07-15T02:03:52.993Z,49.62
2023-07-15T02:06:19.777Z,49.66
2023-07-15T02:08:47.099Z,49.80
2023-07-15T02:11:14.155Z,49.82
2023-07-15T02:13:40.802Z,49.79
2023-07-15T02:16:07.482Z,49.95
2023-07-15T02:18:34.181Z,50.30
2023-07-15T02:21:00.871Z,50.42
2023-07-15T02:23:28.303Z,50.50
2023-07-15T02:25:55.000Z,50.37
2023-07-15T02:28:23.912Z,50.32
2023-07-15T02:30:50.672Z,50.42
2023-07-15T02:33:17.407Z,50.48
2023-07-15T02:35:44.357Z,50.54
2023-07-15T02:38:11.105Z,50.41
2023-07-15T02:40:37.854Z,50.65
2023-07-15T02:43:04.515Z,50.77
2023-07-15T02:45:31.286Z,51.03
2023-07-15T02:47:58.023Z,50.40
2023-07-15T02:50:24.808Z,50.91
2023-07-15T02:52:51.503Z,51.00
2023-07-15T02:55:18.192Z,51.05
2023-07-15T02:57:45.130Z,51.19
2023-07-15T03:00:16.651Z,51.21
2023-07-15T03:02:49.116Z,51.47
2023-07-15T03:05:17.148Z,51.53
2023-07-15T03:07:46.156Z,51.37
2023-07-15T03:10:16.068Z,51.48
2023-07-15T03:12:45.760Z,51.62
2023-07-15T03:15:12.560Z,51.59
2023-07-15T03:17:39.260Z,51.57
2023-07-15T03:20:16.135Z,51.58
2023-07-15T03:22:43.791Z,51.76
2023-07-15T03:25:11.130Z,51.51
2023-07-15T03:27:38.599Z,51.63
2023-07-15T03:30:09.275Z,51.77
2023-07-15T03:32:37.930Z,51.88
2023-07-15T03:35:05.670Z,51.90
2023-07-15T03:37:40.395Z,52.27
2023-07-15T03:40:09.568Z,52.08
2023-07-15T03:42:36.670Z,52.64
2023-07-15T03:45:05.460Z,52.61
2023-07-15T03:47:33.309Z,52.60
2023-07-15T03:49:59.945Z,52.94
2023-07-15T03:52:26.605Z,52.46
2023-07-15T03:54:54.199Z,52.79
2023-07-15T03:57:21.019Z,52.87
2023-07-15T03:59:47.673Z,52.70
2023-07-15T04:02:14.411Z,52.69
2023-07-15T04:04:41.219Z,52.86
2023-07-15T04:07:09.972Z,52.93
2023-07-15T04:09:37.657Z,53.44
2023-07-15T04:12:04.911Z,53.31
2023-07-15T04:14:31.643Z,53.59
2023-07-15T04:16:58.555Z,53.51
2023-07-15T04:19:25.279Z,53.55
2023-07-15T04:21:51.908Z,53.41
2023-07-15T04:24:18.761Z,53.26
2023-07-15T04:26:46.459Z,53.49
2023-07-15T04:29:13.130Z,53.23
2023-07-15T04:31:40.268Z,53.36
2023-07-15T04:34:07.113Z,53.30
2023-07-15T04:36:33.874Z,53.54
2023-07-15T04:39:00.487Z,53.53
2023-07-15T04:41:27.202Z,53.62
2023-07-15T04:43:53.908Z,53.93
2023-07-15T04:46:21.156Z,53.83
2023-07-15T04:48:48.089Z,53.84
2023-07-15T04:51:14.711Z,53.72
2023-07-15T04:53:44.560Z,53.74
2023-07-15T04:56:12.009Z,53.44
2023-07-15T04:58:39.916Z,53.32
2023-07-15T05:01:06.780Z,53.41
2023-07-15T05:03:34.589Z,53.67
2023-07-15T05:06:02.040Z,53.71
2023-07-15T05:08:29.257Z,53.51
2023-07-15T05:10:56.738Z,53.25
2023-07-15T05:13:23.505Z,53.59
2023-07-15T05:15:50.375Z,53.70
2023-07-15T05:18:17.400Z,53.93
2023-07-15T05:20:44.814Z,54.05
2023-07-15T05:23:11.823Z,54.04
2023-07-15T05:25:38.683Z,54.07
2023-07-15T05:28:06.181Z,54.09
2023-07-15T05:30:37.393Z,53.76
2023-07-15T05:33:04.904Z,53.62
2023-07-15T05:35:32.144Z,53.59
2023-07-15T05:37:59.018Z,53.81
2023-07-15T05:40:25.686Z,53.64
2023-07-15T05:42:52.369Z,53.37
2023-07-15T05:45:19.240Z,53.16
2023-07-15T05:47:45.913Z,52.99
2023-07-15T05:50:12.593Z,52.90
2023-07-15T05:52:39.351Z,52.75
2023-07-15T05:55:06.840Z,52.68
2023-07-15T05:57:33.978Z,52.33
2023-07-15T06:00:00.801Z,52.05
2023-07-15T06:02:27.883Z,52.09
2023-07-15T06:04:54.714Z,51.91
2023-07-15T06:07:21.884Z,51.82
2023-07-15T06:09:52.857Z,51.70
2023-07-15T06:12:20.201Z,51.20
2023-07-15T06:14:46.889Z,51.06
2023-07-15T06:17:13.766Z,50.61
2023-07-15T06:19:41.039Z,50.31
2023-07-15T06:22:07.762Z,50.27
2023-07-15T06:24:34.468Z,49.91
2023-07-15T06:27:01.169Z,49.81
2023-07-15T06:29:29.023Z,49.35
2023-07-15T06:31:55.695Z,49.50
2023-07-15T06:34:22.397Z,49.31
2023-07-15T06:36:49.780Z,49.20
2023-07-15T06:39:16.556Z,49.12
2023-07-15T06:41:43.237Z,49.07
2023-07-15T06:44:09.995Z,49.58
2023-07-15T06:46:36.956Z,49.65
2023-07-15T06:49:03.737Z,49.76
2023-07-15T06:51:30.350Z,49.84
2023-07-15T06:53:57.012Z,50.09
2023-07-15T06:56:23.740Z,50.26
2023-07-15T06:58:50.556Z,50.39
2023-07-15T07:01:17.639Z,50.69
2023-07-15T07:03:47.637Z,50.79
2023-07-15T07:06:14.637Z,50.17
2023-07-15T07:08:42.253Z,50.29
2023-07-15T07:11:08.993Z,49.97
2023-07-15T07:13:35.776Z,49.97
2023-07-15T07:16:02.478Z,50.11
2023-07-15T07:18:29.269Z,50.43
2023-07-15T07:21:00.757Z,50.55
2023-07-15T07:23:48.465Z,50.43
2023-07-15T07:26:15.163Z,50.91
2023-07-15T07:28:45.697Z,51.10
2023-07-15T07:31:14.767Z,51.09
2023-07-15T07:33:43.522Z,50.94
2023-07-15T07:36:10.302Z,50.59
2023-07-15T07:38:37.078Z,50.48
2023-07-15T07:41:09.440Z,50.78
2023-07-15T07:43:38.367Z,50.82
2023-07-15T07:46:08.960Z,50.61
2023-07-15T07:48:35.950Z,51.16
2023-07-15T07:51:03.062Z,51.50
2023-07-15T07:53:30.560Z,51.07
2023-07-15T07:55:58.304Z,51.13
2023-07-15T07:58:25.028Z,51.29
2023-07-15T08:00:51.708Z,51.25
2023-07-15T08:03:19.152Z,51.36
2023-07-15T08:05:48.209Z,51.65
2023-07-15T08:08:16.129Z,51.43
2023-07-15T08:10:43.473Z,51.36
2023-07-15T08:13:10.404Z,52.22
2023-07-15T08:15:38.552Z,52.63
2023-07-15T08:18:06.666Z,52.21
2023-07-15T08:20:34.349Z,52.43
2023-07-15T08:23:01.722Z,52.79
2023-07-15T08:25:29.344Z,53.52
2023-07-15T08:27:56.911Z,54.16
2023-07-15T08:30:23.747Z,54.21
2023-07-15T08:32:51.011Z,55.42
2023-07-15T08:35:17.883Z,56.06
2023-07-15T08:37:44.619Z,56.10
2023-07-15T08:40:14.740Z,56.18
2023-07-15T08:42:43.532Z,56.18
2023-07-15T08:45:10.668Z,56.77
2023-07-15T08:47:41.176Z,56.62
2023-07-15T08:50:13.894Z,57.68
2023-07-15T08:52:43.979Z,58.76
2023-07-15T08:55:11.646Z,59.33
2023-07-15T08:57:38.712Z,59.58
2023-07-15T09:00:09.855Z,59.85
2023-07-15T09:02:39.114Z,59.89
2023-07-15T09:05:10.610Z,59.96
2023-07-15T09:07:58.538Z,59.98
2023-07-15T09:10:29.888Z,60.35
2023-07-15T09:12:57.457Z,61.25
2023-07-15T09:15:24.480Z,59.94
2023-07-15T09:17:56.425Z,60.67
2023-07-15T09:20:25.765Z,60.35
2023-07-15T09:23:00.619Z,59.71
2023-07-15T09:25:28.494Z,59.55
2023-07-15T09:27:55.853Z,60.46
2023-07-15T09:30:22.982Z,61.18
2023-07-15T09:32:49.817Z,60.72
2023-07-15T09:35:16.675Z,60.87
2023-07-15T09:37:48.113Z,61.42
2023-07-15T09:40:15.202Z,62.27
2023-07-15T09:42:56.528Z,61.87
2023-07-15T09:45:40.638Z,62.68
2023-07-15T09:48:10.746Z,62.55
2023-07-15T09:50:43.293Z,63.75
2023-07-15T09:53:12.215Z,62.65
2023-07-15T09:55:44.221Z,62.84
2023-07-15T09:58:26.107Z,63.82
2023-07-15T10:01:07.273Z,63.75
2023-07-15T10:03:43.448Z,62.66
2023-07-15T10:06:12.949Z,63.12
2023-07-15T10:08:40.947Z,62.79
2023-07-15T10:11:09.440Z,62.69
2023-07-15T10:13:36.875Z,62.09
2023-07-15T10:16:05.412Z,62.64
2023-07-15T10:18:32.672Z,61.74
2023-07-15T10:21:06.296Z,61.61
2023-07-15T10:23:35.166Z,62.63
2023-07-15T10:26:01.806Z,63.56
2023-07-15T10:28:36.288Z,63.67
2023-07-15T10:31:15.722Z,63.14
2023-07-15T10:33:56.731Z,62.74
2023-07-15T10:36:46.409Z,61.58
2023-07-15T10:39:19.496Z,60.21
2023-07-15T10:41:53.185Z,59.55
2023-07-15T10:44:27.010Z,59.88
2023-07-15T10:47:04.667Z,60.55
2023-07-15T10:49:32.965Z,61.26
2023-07-15T10:52:00.154Z,62.45
2023-07-15T10:54:29.294Z,63.32
2023-07-15T10:56:56.659Z,62.95
2023-07-15T10:59:36.213Z,62.83
2023-07-15T11:02:03.505Z,61.60
2023-07-15T11:04:31.279Z,61.74
2023-07-15T11:07:13.842Z,65.67
2023-07-15T11:09:42.565Z,63.19
2023-07-15T11:12:12.824Z,61.44
2023-07-15T11:14:44.810Z,61.08
2023-07-15T11:17:19.686Z,62.23
2023-07-15T11:19:46.733Z,62.92
2023-07-15T11:22:13.533Z,63.40
2023-07-15T11:24:40.806Z,63.27
2023-07-15T11:27:07.662Z,63.15
2023-07-15T11:29:34.356Z,62.69
2023-07-15T11:32:02.329Z,62.53
2023-07-15T11:34:31.028Z,62.02
2023-07-15T11:36:59.076Z,62.49
2023-07-15T11:39:25.857Z,62.87
2023-07-15T11:41:53.039Z,62.54
2023-07-15T11:44:24.574Z,63.03
2023-07-15T11:46:51.661Z,62.25
2023-07-15T11:49:23.347Z,61.55
2023-07-15T11:51:50.608Z,60.93
2023-07-15T11:54:17.998Z,60.12
2023-07-15T12:04:45.234Z,57.67
2023-07-15T12:07:13.328Z,58.22
2023-07-15T12:09:40.584Z,57.44
2023-07-15T12:12:08.469Z,58.28
2023-07-15T12:14:35.489Z,59.20
2023-07-15T12:17:03.872Z,59.51
2023-07-15T12:19:33.702Z,59.20
2023-07-15T12:22:00.411Z,59.05
2023-07-15T12:24:27.048Z,59.05
2023-07-15T12:26:53.919Z,59.30
2023-07-15T12:29:20.626Z,58.26
2023-07-15T12:31:47.566Z,57.22
2023-07-15T12:34:14.271Z,57.34
2023-07-15T12:36:41.311Z,57.26
2023-07-15T12:39:07.998Z,57.93
2023-07-15T12:41:34.760Z,58.43
2023-07-15T12:44:01.413Z,59.05
2023-07-15T12:46:28.201Z,56.62
2023-07-15T12:48:54.985Z,55.59
2023-07-15T12:51:21.725Z,54.00
2023-07-15T12:53:48.432Z,54.35
2023-07-15T12:56:15.879Z,52.61
2023-07-15T12:58:43.133Z,52.13
2023-07-15T13:01:10.449Z,51.05
2023-07-15T13:03:37.424Z,50.55
2023-07-15T13:06:06.467Z,50.24
2023-07-15T13:08:33.270Z,50.53
2023-07-15T13:10:59.884Z,50.04
2023-07-15T13:13:26.613Z,50.00
2023-07-15T13:15:53.333Z,49.63
2023-07-15T13:18:20.451Z,50.64
2023-07-15T13:20:47.674Z,50.05
2023-07-15T13:23:14.572Z,49.78
2023-07-15T13:25:41.312Z,48.33
2023-07-15T13:28:08.072Z,47.77
2023-07-15T13:30:34.957Z,47.34
2023-07-15T13:33:01.844Z,47.12
2023-07-15T13:35:28.678Z,46.87
2023-07-15T13:37:55.370Z,47.01
2023-07-15T13:40:22.247Z,46.78
2023-07-15T13:42:52.004Z,47.16
2023-07-15T13:45:19.486Z,47.41
2023-07-15T13:47:51.929Z,47.62
2023-07-15T13:50:19.280Z,47.45
2023-07-15T13:52:46.110Z,48.14
2023-07-15T13:55:12.772Z,48.02
2023-07-15T13:57:39.473Z,47.64
2023-07-15T14:00:11.019Z,47.12
2023-07-15T14:02:40.664Z,46.97
2023-07-15T14:05:08.474Z,46.85
2023-07-15T14:07:35.169Z,46.64
2023-07-15T14:10:02.153Z,46.54
2023-07-15T14:12:28.807Z,45.89
2023-07-15T14:14:55.478Z,45.80
2023-07-15T14:17:22.212Z,45.40
2023-07-15T14:19:48.908Z,44.97
2023-07-15T14:22:18.904Z,44.69
2023-07-15T14:24:48.932Z,44.67
2023-07-15T14:27:15.686Z,43.89
2023-07-15T14:29:42.443Z,43.88
2023-07-15T14:32:09.553Z,43.50
2023-07-15T14:34:36.572Z,43.73
2023-07-15T14:37:03.443Z,43.77
2023-07-15T14:39:30.161Z,43.45
2023-07-15T14:41:56.848Z,43.88
2023-07-15T14:44:23.537Z,43.99
2023-07-15T14:46:50.279Z,44.10
2023-07-15T14:49:17.021Z,44.73
2023-07-15T14:51:43.721Z,45.12
2023-07-15T14:54:10.385Z,45.07
2023-07-15T14:56:37.080Z,45.43
2023-07-15T14:59:03.813Z,45.81
2023-07-15T15:01:31.105Z,46.17
2023-07-15T15:03:58.017Z,46.75
2023-07-15T15:06:24.716Z,47.05
2023-07-15T15:08:51.671Z,48.18
2023-07-15T15:11:18.481Z,48.89
2023-07-15T15:13:50.309Z,49.13
2023-07-15T15:16:17.262Z,49.66
2023-07-15T15:18:47.134Z,50.34
2023-07-15T15:21:15.601Z,50.59
2023-07-15T15:23:43.076Z,50.79
2023-07-15T15:26:10.117Z,51.46
2023-07-15T15:28:42.450Z,51.44
2023-07-15T15:31:09.502Z,51.88
2023-07-15T15:33:36.360Z,51.62
2023-07-15T15:36:03.094Z,51.71
2023-07-15T15:38:30.618Z,51.96
2023-07-15T15:40:57.509Z,51.36
2023-07-15T15:43:25.490Z,49.03
2023-07-15T15:45:52.751Z,48.19
2023-07-15T15:48:20.998Z,46.96
2023-07-15T15:50:47.800Z,45.71
2023-07-15T15:53:15.531Z,45.09
2023-07-15T15:55:42.934Z,44.52
2023-07-15T15:58:09.928Z,44.86
2023-07-15T16:00:37.145Z,44.80
2023-07-15T16:03:06.276Z,45.28
2023-07-15T16:05:33.049Z,46.18
2023-07-15T16:07:59.881Z,47.12
2023-07-15T16:10:26.755Z,47.66
2023-07-15T16:12:53.577Z,48.34
2023-07-15T16:15:20.371Z,48.96
2023-07-15T16:17:47.143Z,49.80
2023-07-15T16:20:19.508Z,50.04
2023-07-15T16:22:46.415Z,50.12
2023-07-15T16:25:13.130Z,51.54
2023-07-15T16:27:39.920Z,51.28
2023-07-15T16:30:07.889Z,51.38
2023-07-15T16:32:34.691Z,51.91
2023-07-15T16:35:01.456Z,52.89
2023-07-15T16:37:28.258Z,52.53
2023-07-15T16:39:54.963Z,53.18
2023-07-15T16:42:21.657Z,53.22
2023-07-15T16:44:48.593Z,52.97
2023-07-15T16:47:15.475Z,53.27
2023-07-15T16:49:43.976Z,53.14
2023-07-15T16:52:11.023Z,52.67
2023-07-15T16:54:37.779Z,52.74
2023-07-15T16:57:05.192Z,52.42
2023-07-15T16:59:31.925Z,52.30
2023-07-15T17:01:58.762Z,52.88
2023-07-15T17:04:25.726Z,53.21
2023-07-15T17:06:52.450Z,52.93
2023-07-15T17:09:19.292Z,53.00
2023-07-15T17:11:46.138Z,52.98
2023-07-15T17:14:12.812Z,52.76
2023-07-15T17:16:39.611Z,52.52
2023-07-15T17:19:06.312Z,52.41
2023-07-15T17:21:34.537Z,52.36
2023-07-15T17:24:01.765Z,52.52
2023-07-15T17:26:28.586Z,52.44
2023-07-15T17:28:55.360Z,52.31
2023-07-15T17:31:22.576Z,52.71
2023-07-15T17:33:49.301Z,52.78
2023-07-15T17:36:16.141Z,52.73
2023-07-15T17:38:43.309Z,52.85
2023-07-15T17:41:10.033Z,52.38
2023-07-15T17:43:36.813Z,52.44
2023-07-15T17:46:03.620Z,52.88
2023-07-15T17:48:30.367Z,53.12
2023-07-15T17:50:57.197Z,53.03
2023-07-15T17:53:24.034Z,53.42
2023-07-15T17:55:52.723Z,53.32
2023-07-15T17:58:19.956Z,53.74
2023-07-15T18:00:47.623Z,54.14
2023-07-15T18:03:14.856Z,54.12
2023-07-15T18:05:41.767Z,54.00
2023-07-15T18:08:10.027Z,54.17
2023-07-15T18:10:38.200Z,54.03
2023-07-15T18:13:06.486Z,54.24
2023-07-15T18:15:33.399Z,54.36
2023-07-15T18:18:00.619Z,54.31
2023-07-15T18:20:27.331Z,54.26
2023-07-15T18:22:54.008Z,54.56
2023-07-15T18:25:21.936Z,54.69
2023-07-15T18:27:48.907Z,54.50
2023-07-15T18:30:15.920Z,54.85
2023-07-15T18:32:42.670Z,54.81
2023-07-15T18:35:10.298Z,54.81
2023-07-15T18:37:37.116Z,55.13
2023-07-15T18:40:04.362Z,55.57
2023-07-15T18:42:31.016Z,55.65
2023-07-15T18:44:57.704Z,55.51
2023-07-15T18:47:24.413Z,56.26
2023-07-15T18:49:51.168Z,56.81
2023-07-15T18:52:17.815Z,56.92
2023-07-15T18:54:44.498Z,56.69
2023-07-15T18:59:40.728Z,57.37
2023-07-15T19:02:08.842Z,57.40
2023-07-15T19:04:35.604Z,57.83
2023-07-15T19:07:02.293Z,57.89
2023-07-15T19:09:29.708Z,57.75
2023-07-15T19:11:56.485Z,57.59
2023-07-15T19:14:23.400Z,57.83
2023-07-15T19:16:51.324Z,58.38
2023-07-15T19:19:18.055Z,58.44
2023-07-15T19:21:44.753Z,58.48
2023-07-15T19:24:12.572Z,58.74
2023-07-15T19:26:39.313Z,58.87
2023-07-15T19:29:05.997Z,59.18
2023-07-15T19:31:32.768Z,59.07
2023-07-15T19:33:59.533Z,59.10
2023-07-15T19:36:26.189Z,59.40
2023-07-15T19:38:52.847Z,59.40
2023-07-15T19:41:19.740Z,59.28
2023-07-15T19:43:46.509Z,59.29
2023-07-15T19:46:13.313Z,59.15
2023-07-15T19:48:40.036Z,59.25
2023-07-15T19:51:06.678Z,59.42
2023-07-15T19:53:33.452Z,59.41
2023-07-15T19:56:00.168Z,59.41
2023-07-15T19:58:26.805Z,59.50
2023-07-15T20:00:53.528Z,59.56
2023-07-15T20:03:20.332Z,59.42
2023-07-15T20:05:47.121Z,59.47
2023-07-15T20:08:14.235Z,59.74
2023-07-15T20:10:40.902Z,59.63
2023-07-15T20:13:10.008Z,59.61
2023-07-15T20:15:36.957Z,59.49
2023-07-15T20:18:03.870Z,59.69
2023-07-15T20:20:30.805Z,59.65
2023-07-15T20:22:57.502Z,59.76
2023-07-15T20:25:24.422Z,59.69
2023-07-15T20:27:51.631Z,59.99
2023-07-15T20:30:18.339Z,60.13
2023-07-15T20:32:45.153Z,59.79
2023-07-15T20:35:11.979Z,59.94
2023-07-15T20:37:38.666Z,60.11
2023-07-15T20:40:07.020Z,59.89
2023-07-15T20:42:33.701Z,60.05
2023-07-15T20:45:00.349Z,59.82
2023-07-15T20:47:27.094Z,59.91
2023-07-15T20:49:53.763Z,60.21
2023-07-15T20:52:20.484Z,60.20
2023-07-15T20:54:47.152Z,60.35
2023-07-15T20:57:13.855Z,60.40
2023-07-15T20:59:40.561Z,60.12
2023-07-15T21:02:07.470Z,60.15
2023-07-15T21:04:34.658Z,60.04
2023-07-15T21:07:01.446Z,59.94
2023-07-15T21:09:28.201Z,59.87
2023-07-15T21:11:54.942Z,59.55
2023-07-15T21:14:21.709Z,59.47
2023-07-15T21:16:48.443Z,59.32
2023-07-15T21:19:15.278Z,59.31
2023-07-15T21:21:41.963Z,59.15
2023-07-15T21:24:08.809Z,59.03
2023-07-15T21:26:35.487Z,58.65
2023-07-15T21:29:02.226Z,58.61
2023-07-15T21:31:30.551Z,58.54
2023-07-15T21:34:00.245Z,58.59
2023-07-15T21:36:28.479Z,58.62
2023-07-15T21:38:55.190Z,58.77
2023-07-15T21:41:21.858Z,58.77
2023-07-15T21:43:48.505Z,58.67
2023-07-15T21:46:15.634Z,58.63
2023-07-15T21:48:42.669Z,58.87
2023-07-15T21:51:09.704Z,59.10
2023-07-15T21:53:36.390Z,59.36
2023-07-15T21:56:03.210Z,59.34
2023-07-15T21:58:29.939Z,59.60
2023-07-15T22:01:00.204Z,59.77
2023-07-15T22:03:27.199Z,60.10
2023-07-15T22:05:55.435Z,60.17
2023-07-15T22:08:23.159Z,60.33
2023-07-15T22:10:49.826Z,60.55
2023-07-15T22:13:17.284Z,60.58
2023-07-15T22:15:45.464Z,60.58
2023-07-15T22:18:21.940Z,60.78
2023-07-15T22:20:56.932Z,60.84
2023-07-15T22:23:23.644Z,60.96
2023-07-15T22:25:59.402Z,60.79
2023-07-15T22:28:26.157Z,60.93
2023-07-15T22:30:52.863Z,60.72
2023-07-15T22:33:19.643Z,60.73
2023-07-15T22:35:46.333Z,60.76
2023-07-15T22:38:13.064Z,60.59
2023-07-15T22:40:39.758Z,60.70
2023-07-15T22:43:06.422Z,60.59
2023-07-15T22:45:33.128Z,60.50
2023-07-15T22:48:00.511Z,60.63
2023-07-15T22:50:27.332Z,60.51
2023-07-15T22:52:54.071Z,60.58
2023-07-15T22:55:20.964Z,60.44
2023-07-15T22:57:47.638Z,60.49
2023-07-15T23:00:16.445Z,60.49
2023-07-15T23:02:43.406Z,60.55
2023-07-15T23:05:12.943Z,60.87
2023-07-15T23:07:41.278Z,61.10
2023-07-15T23:10:08.888Z,61.42
2023-07-15T23:12:35.640Z,61.64
2023-07-15T23:15:02.546Z,61.93
2023-07-15T23:17:29.406Z,62.22
2023-07-15T23:20:09.885Z,62.33
2023-07-15T23:22:36.864Z,62.68
2023-07-15T23:25:04.168Z,62.77
2023-07-15T23:27:31.187Z,62.45
2023-07-15T23:29:59.308Z,62.73
2023-07-15T23:32:28.852Z,62.61
2023-07-15T23:34:59.673Z,62.86
2023-07-15T23:37:27.901Z,62.93
2023-07-15T23:39:56.450Z,63.00
2023-07-15T23:42:26.188Z,63.13
2023-07-15T23:44:53.079Z,62.98
2023-07-15T23:47:20.423Z,62.84
2023-07-15T23:49:48.113Z,62.77
2023-07-15T23:52:16.091Z,62.71
2023-07-15T23:54:43.030Z,62.56
2023-07-15T23:57:09.880Z,62.49
2023-07-15T23:59:36.537Z,62.68
